sensor_id;sensor_type;location;lat;lon;timestamp;temperature;humidity
21744;DHT22;11034;48.556;9.342;2022-08-30T00:01:38;17.00;99.90
21744;DHT22;11034;48.556;9.342;2022-08-30T00:04:15;17.00;99.90
21744;DHT22;11034;48.556;9.342;2022-08-30T00:07:39;17.00;99.90
21744;DHT22;11034;48.556;9.342;2022-08-30T00:10:22;17.00;99.90
21744;DHT22;11034;48.556;9.342;2022-08-30T00:13:15;17.00;99.90
21744;DHT22;11034;48.556;9.342;2022-08-30T00:16:07;16.90;99.90
21744;DHT22;11034;48.556;9.342;2022-08-30T00:18:49;16.80;99.90
21744;DHT22;11034;48.556;9.342;2022-08-30T00:21:51;16.80;99.90
21744;DHT22;11034;48.556;9.342;2022-08-30T00:24:24;16.80;99.90
21744;DHT22;11034;48.556;9.342;2022-08-30T00:27:07;16.80;99.90
21744;DHT22;11034;48.556;9.342;2022-08-30T00:29:47;16.70;99.90
21744;DHT22;11034;48.556;9.342;2022-08-30T00:32:27;16.70;99.90
21744;DHT22;11034;48.556;9.342;2022-08-30T00:35:22;16.70;99.90
21744;DHT22;11034;48.556;9.342;2022-08-30T00:37:59;16.70;99.90
21744;DHT22;11034;48.556;9.342;2022-08-30T00:40:47;16.70;99.90
21744;DHT22;11034;48.556;9.342;2022-08-30T00:43:39;16.80;99.90
21744;DHT22;11034;48.556;9.342;2022-08-30T00:49:17;16.70;99.90
21744;DHT22;11034;48.556;9.342;2022-08-30T00:52:03;16.60;99.90
21744;DHT22;11034;48.556;9.342;2022-08-30T00:54:44;16.60;99.90
21744;DHT22;11034;48.556;9.342;2022-08-30T00:57:30;16.60;99.90
21744;DHT22;11034;48.556;9.342;2022-08-30T01:00:25;16.50;99.90
21744;DHT22;11034;48.556;9.342;2022-08-30T01:03:24;16.60;99.90
21744;DHT22;11034;48.556;9.342;2022-08-30T01:06:12;16.60;99.90
21744;DHT22;11034;48.556;9.342;2022-08-30T01:09:09;16.60;99.90
21744;DHT22;11034;48.556;9.342;2022-08-30T01:12:05;16.40;99.90
21744;DHT22;11034;48.556;9.342;2022-08-30T01:14:53;16.40;99.90
21744;DHT22;11034;48.556;9.342;2022-08-30T01:17:35;16.40;99.90
21744;DHT22;11034;48.556;9.342;2022-08-30T01:20:22;16.30;99.90
21744;DHT22;11034;48.556;9.342;2022-08-30T01:23:11;16.40;99.90
21744;DHT22;11034;48.556;9.342;2022-08-30T01:25:44;16.40;99.90
21744;DHT22;11034;48.556;9.342;2022-08-30T01:28:26;16.40;99.90
21744;DHT22;11034;48.556;9.342;2022-08-30T01:30:56;16.50;99.90
21744;DHT22;11034;48.556;9.342;2022-08-30T01:33:32;16.50;99.90
21744;DHT22;11034;48.556;9.342;2022-08-30T01:36:12;16.50;99.90
21744;DHT22;11034;48.556;9.342;2022-08-30T01:39:02;16.40;99.90
21744;DHT22;11034;48.556;9.342;2022-08-30T01:41:45;16.40;99.90
21744;DHT22;11034;48.556;9.342;2022-08-30T01:44:25;16.50;99.90
21744;DHT22;11034;48.556;9.342;2022-08-30T01:47:13;16.60;99.90
21744;DHT22;11034;48.556;9.342;2022-08-30T01:49:57;16.60;99.90
21744;DHT22;11034;48.556;9.342;2022-08-30T01:52:34;16.60;99.90
21744;DHT22;11034;48.556;9.342;2022-08-30T01:55:29;16.50;99.90
21744;DHT22;11034;48.556;9.342;2022-08-30T01:58:03;16.50;99.90
21744;DHT22;11034;48.556;9.342;2022-08-30T02:00:41;16.50;99.90
21744;DHT22;11034;48.556;9.342;2022-08-30T02:03:22;16.40;99.90
21744;DHT22;11034;48.556;9.342;2022-08-30T02:06:09;16.40;99.90
21744;DHT22;11034;48.556;9.342;2022-08-30T02:08:45;16.40;99.90
21744;DHT22;11034;48.556;9.342;2022-08-30T02:11:25;16.50;99.90
21744;DHT22;11034;48.556;9.342;2022-08-30T02:14:19;16.40;99.90
21744;DHT22;11034;48.556;9.342;2022-08-30T02:17:19;16.20;99.90
21744;DHT22;11034;48.556;9.342;2022-08-30T02:19:52;16.20;99.90
21744;DHT22;11034;48.556;9.342;2022-08-30T02:22:27;16.20;99.90
21744;DHT22;11034;48.556;9.342;2022-08-30T02:25:26;16.20;99.90
21744;DHT22;11034;48.556;9.342;2022-08-30T02:28:27;16.20;99.90
21744;DHT22;11034;48.556;9.342;2022-08-30T02:31:21;16.20;99.90
21744;DHT22;11034;48.556;9.342;2022-08-30T02:33:52;16.10;99.90
21744;DHT22;11034;48.556;9.342;2022-08-30T02:36:26;16.10;99.90
21744;DHT22;11034;48.556;9.342;2022-08-30T02:39:02;16.20;99.90
21744;DHT22;11034;48.556;9.342;2022-08-30T02:41:34;16.20;99.90
21744;DHT22;11034;48.556;9.342;2022-08-30T02:44:15;16.20;99.90
21744;DHT22;11034;48.556;9.342;2022-08-30T02:46:48;16.10;99.90
21744;DHT22;11034;48.556;9.342;2022-08-30T02:49:27;16.10;99.90
21744;DHT22;11034;48.556;9.342;2022-08-30T02:52:23;16.00;99.90
21744;DHT22;11034;48.556;9.342;2022-08-30T02:55:06;16.00;99.90
21744;DHT22;11034;48.556;9.342;2022-08-30T02:58:02;15.90;99.90
21744;DHT22;11034;48.556;9.342;2022-08-30T03:00:45;16.00;99.90
21744;DHT22;11034;48.556;9.342;2022-08-30T03:03:27;15.90;99.90
21744;DHT22;11034;48.556;9.342;2022-08-30T03:09:11;15.80;99.90
21744;DHT22;11034;48.556;9.342;2022-08-30T03:12:22;15.80;99.90
21744;DHT22;11034;48.556;9.342;2022-08-30T03:15:11;15.80;99.90
21744;DHT22;11034;48.556;9.342;2022-08-30T03:18:05;15.70;99.90
21744;DHT22;11034;48.556;9.342;2022-08-30T03:20:57;15.60;99.90
21744;DHT22;11034;48.556;9.342;2022-08-30T03:23:39;15.60;99.90
21744;DHT22;11034;48.556;9.342;2022-08-30T03:26:24;15.60;99.90
21744;DHT22;11034;48.556;9.342;2022-08-30T03:29:20;15.70;99.90
21744;DHT22;11034;48.556;9.342;2022-08-30T03:32:17;15.60;99.90
21744;DHT22;11034;48.556;9.342;2022-08-30T03:35:03;15.70;99.90
21744;DHT22;11034;48.556;9.342;2022-08-30T03:37:55;15.70;99.90
21744;DHT22;11034;48.556;9.342;2022-08-30T03:40:36;15.90;99.90
21744;DHT22;11034;48.556;9.342;2022-08-30T03:43:20;15.90;99.90
21744;DHT22;11034;48.556;9.342;2022-08-30T03:46:11;15.90;99.90
21744;DHT22;11034;48.556;9.342;2022-08-30T03:48:56;15.90;99.90
21744;DHT22;11034;48.556;9.342;2022-08-30T03:51:48;15.90;99.90
21744;DHT22;11034;48.556;9.342;2022-08-30T03:54:25;15.90;99.90
21744;DHT22;11034;48.556;9.342;2022-08-30T03:57:27;15.90;99.90
21744;DHT22;11034;48.556;9.342;2022-08-30T04:00:28;15.90;99.90
21744;DHT22;11034;48.556;9.342;2022-08-30T04:03:44;15.90;99.90
21744;DHT22;11034;48.556;9.342;2022-08-30T04:22:16;15.80;99.90
21744;DHT22;11034;48.556;9.342;2022-08-30T04:36:17;15.80;99.90
21744;DHT22;11034;48.556;9.342;2022-08-30T04:38:48;16.00;99.90
21744;DHT22;11034;48.556;9.342;2022-08-30T04:41:19;16.00;99.90
21744;DHT22;11034;48.556;9.342;2022-08-30T04:43:55;15.80;99.90
21744;DHT22;11034;48.556;9.342;2022-08-30T04:46:29;15.80;99.90
21744;DHT22;11034;48.556;9.342;2022-08-30T04:49:03;15.70;99.90
21744;DHT22;11034;48.556;9.342;2022-08-30T04:51:32;15.70;99.90
21744;DHT22;11034;48.556;9.342;2022-08-30T04:54:02;15.70;99.90
21744;DHT22;11034;48.556;9.342;2022-08-30T04:56:56;15.70;99.90
21744;DHT22;11034;48.556;9.342;2022-08-30T05:27:19;17.50;99.90
21744;DHT22;11034;48.556;9.342;2022-08-30T05:38:03;19.30;99.90
21744;DHT22;11034;48.556;9.342;2022-08-30T05:40:38;19.80;99.90
21744;DHT22;11034;48.556;9.342;2022-08-30T05:43:11;20.00;99.90
21744;DHT22;11034;48.556;9.342;2022-08-30T05:45:43;20.50;99.90
21744;DHT22;11034;48.556;9.342;2022-08-30T05:48:11;20.50;99.90
21744;DHT22;11034;48.556;9.342;2022-08-30T05:50:39;20.70;99.90
21744;DHT22;11034;48.556;9.342;2022-08-30T05:53:11;20.80;99.90
21744;DHT22;11034;48.556;9.342;2022-08-30T05:55:43;21.00;99.90
21744;DHT22;11034;48.556;9.342;2022-08-30T05:58:12;21.30;99.90
21744;DHT22;11034;48.556;9.342;2022-08-30T06:00:45;21.60;99.90
21744;DHT22;11034;48.556;9.342;2022-08-30T06:03:15;21.50;99.90
21744;DHT22;11034;48.556;9.342;2022-08-30T06:05:44;21.60;99.90
21744;DHT22;11034;48.556;9.342;2022-08-30T06:08:12;21.70;99.90
21744;DHT22;11034;48.556;9.342;2022-08-30T06:10:43;22.00;99.90
21744;DHT22;11034;48.556;9.342;2022-08-30T06:13:13;22.10;99.90
21744;DHT22;11034;48.556;9.342;2022-08-30T06:15:42;22.20;99.90
21744;DHT22;11034;48.556;9.342;2022-08-30T06:18:17;22.40;99.90
21744;DHT22;11034;48.556;9.342;2022-08-30T06:20:54;22.70;99.90
21744;DHT22;11034;48.556;9.342;2022-08-30T06:23:28;23.10;99.90
21744;DHT22;11034;48.556;9.342;2022-08-30T06:26:02;23.20;99.90
21744;DHT22;11034;48.556;9.342;2022-08-30T06:28:47;23.50;99.90
21744;DHT22;11034;48.556;9.342;2022-08-30T06:31:31;23.60;99.90
21744;DHT22;11034;48.556;9.342;2022-08-30T06:34:03;24.10;99.90
21744;DHT22;11034;48.556;9.342;2022-08-30T06:36:31;24.40;99.90
21744;DHT22;11034;48.556;9.342;2022-08-30T06:39:27;24.70;99.90
21744;DHT22;11034;48.556;9.342;2022-08-30T06:42:09;25.10;99.90
21744;DHT22;11034;48.556;9.342;2022-08-30T06:44:45;25.10;99.90
21744;DHT22;11034;48.556;9.342;2022-08-30T06:47:13;25.00;99.90
21744;DHT22;11034;48.556;9.342;2022-08-30T06:49:42;25.20;99.90
21744;DHT22;11034;48.556;9.342;2022-08-30T06:52:10;25.20;99.90
21744;DHT22;11034;48.556;9.342;2022-08-30T06:54:38;25.20;99.90
21744;DHT22;11034;48.556;9.342;2022-08-30T06:57:06;25.40;99.90
21744;DHT22;11034;48.556;9.342;2022-08-30T06:59:34;25.20;99.90
21744;DHT22;11034;48.556;9.342;2022-08-30T07:02:04;25.20;99.90
21744;DHT22;11034;48.556;9.342;2022-08-30T07:04:33;25.30;99.90
21744;DHT22;11034;48.556;9.342;2022-08-30T07:07:01;25.40;99.90
21744;DHT22;11034;48.556;9.342;2022-08-30T07:09:29;25.80;99.90
21744;DHT22;11034;48.556;9.342;2022-08-30T07:12:00;25.80;99.90
21744;DHT22;11034;48.556;9.342;2022-08-30T07:14:29;25.70;99.90
21744;DHT22;11034;48.556;9.342;2022-08-30T07:16:57;25.50;99.90
21744;DHT22;11034;48.556;9.342;2022-08-30T07:19:26;25.50;99.90
21744;DHT22;11034;48.556;9.342;2022-08-30T07:21:53;25.30;99.90
21744;DHT22;11034;48.556;9.342;2022-08-30T07:24:21;25.20;99.90
21744;DHT22;11034;48.556;9.342;2022-08-30T07:26:50;25.40;99.90
21744;DHT22;11034;48.556;9.342;2022-08-30T07:29:19;25.50;99.90
21744;DHT22;11034;48.556;9.342;2022-08-30T07:31:48;25.30;99.90
21744;DHT22;11034;48.556;9.342;2022-08-30T07:34:16;25.70;99.90
21744;DHT22;11034;48.556;9.342;2022-08-30T07:36:49;25.90;99.90
21744;DHT22;11034;48.556;9.342;2022-08-30T07:39:18;26.20;99.90
21744;DHT22;11034;48.556;9.342;2022-08-30T07:41:46;25.80;99.90
21744;DHT22;11034;48.556;9.342;2022-08-30T07:44:14;25.80;99.90
21744;DHT22;11034;48.556;9.342;2022-08-30T07:46:42;25.80;99.90
21744;DHT22;11034;48.556;9.342;2022-08-30T07:49:10;25.80;99.90
21744;DHT22;11034;48.556;9.342;2022-08-30T07:51:39;25.70;99.90
21744;DHT22;11034;48.556;9.342;2022-08-30T07:54:08;25.50;99.90
21744;DHT22;11034;48.556;9.342;2022-08-30T07:56:37;24.90;99.90
21744;DHT22;11034;48.556;9.342;2022-08-30T07:59:05;24.40;99.90
21744;DHT22;11034;48.556;9.342;2022-08-30T08:01:33;23.90;99.90
21744;DHT22;11034;48.556;9.342;2022-08-30T08:04:01;23.40;99.90
21744;DHT22;11034;48.556;9.342;2022-08-30T08:06:30;23.10;99.90
21744;DHT22;11034;48.556;9.342;2022-08-30T08:09:00;22.90;99.90
21744;DHT22;11034;48.556;9.342;2022-08-30T08:11:31;22.80;99.90
21744;DHT22;11034;48.556;9.342;2022-08-30T08:14:00;22.80;99.90
21744;DHT22;11034;48.556;9.342;2022-08-30T08:16:33;22.90;99.90
21744;DHT22;11034;48.556;9.342;2022-08-30T08:19:01;22.90;99.90
21744;DHT22;11034;48.556;9.342;2022-08-30T08:21:30;23.00;99.90
21744;DHT22;11034;48.556;9.342;2022-08-30T08:23:58;23.10;99.90
21744;DHT22;11034;48.556;9.342;2022-08-30T08:26:26;23.20;99.90
21744;DHT22;11034;48.556;9.342;2022-08-30T08:28:56;23.00;99.90
21744;DHT22;11034;48.556;9.342;2022-08-30T08:31:25;23.00;99.90
21744;DHT22;11034;48.556;9.342;2022-08-30T08:33:59;23.30;99.90
21744;DHT22;11034;48.556;9.342;2022-08-30T08:36:29;23.30;99.90
21744;DHT22;11034;48.556;9.342;2022-08-30T08:38:57;23.20;99.90
21744;DHT22;11034;48.556;9.342;2022-08-30T08:41:35;23.10;99.90
21744;DHT22;11034;48.556;9.342;2022-08-30T08:44:11;23.10;99.90
21744;DHT22;11034;48.556;9.342;2022-08-30T08:46:46;23.00;99.90
21744;DHT22;11034;48.556;9.342;2022-08-30T08:49:16;23.20;99.90
21744;DHT22;11034;48.556;9.342;2022-08-30T08:51:44;23.30;99.90
21744;DHT22;11034;48.556;9.342;2022-08-30T08:54:32;23.60;99.90
21744;DHT22;11034;48.556;9.342;2022-08-30T08:57:02;23.50;99.90
21744;DHT22;11034;48.556;9.342;2022-08-30T08:59:31;23.60;99.90
21744;DHT22;11034;48.556;9.342;2022-08-30T09:02:12;23.70;99.90
21744;DHT22;11034;48.556;9.342;2022-08-30T09:04:43;23.70;99.90
21744;DHT22;11034;48.556;9.342;2022-08-30T09:07:16;23.80;99.90
21744;DHT22;11034;48.556;9.342;2022-08-30T09:09:47;23.80;99.90
21744;DHT22;11034;48.556;9.342;2022-08-30T09:12:15;23.80;99.90
21744;DHT22;11034;48.556;9.342;2022-08-30T09:14:47;23.90;99.90
21744;DHT22;11034;48.556;9.342;2022-08-30T09:17:21;23.90;99.90
21744;DHT22;11034;48.556;9.342;2022-08-30T09:19:57;23.80;99.90
21744;DHT22;11034;48.556;9.342;2022-08-30T09:22:32;24.00;99.90
21744;DHT22;11034;48.556;9.342;2022-08-30T09:25:06;23.90;99.90
21744;DHT22;11034;48.556;9.342;2022-08-30T09:27:36;23.90;99.90
21744;DHT22;11034;48.556;9.342;2022-08-30T09:30:09;24.00;99.90
21744;DHT22;11034;48.556;9.342;2022-08-30T09:32:49;24.00;99.90
21744;DHT22;11034;48.556;9.342;2022-08-30T09:35:21;24.20;99.90
21744;DHT22;11034;48.556;9.342;2022-08-30T09:37:55;24.20;99.90
21744;DHT22;11034;48.556;9.342;2022-08-30T09:40:27;24.20;99.90
21744;DHT22;11034;48.556;9.342;2022-08-30T09:43:05;24.30;99.90
21744;DHT22;11034;48.556;9.342;2022-08-30T09:45:41;24.40;99.90
21744;DHT22;11034;48.556;9.342;2022-08-30T09:48:27;24.50;99.90
21744;DHT22;11034;48.556;9.342;2022-08-30T09:51:11;24.60;99.90
21744;DHT22;11034;48.556;9.342;2022-08-30T09:53:49;24.60;99.90
21744;DHT22;11034;48.556;9.342;2022-08-30T09:56:42;24.80;99.90
21744;DHT22;11034;48.556;9.342;2022-08-30T09:59:25;24.80;99.90
21744;DHT22;11034;48.556;9.342;2022-08-30T10:02:05;24.80;99.90
21744;DHT22;11034;48.556;9.342;2022-08-30T10:04:42;24.90;99.90
21744;DHT22;11034;48.556;9.342;2022-08-30T10:07:16;25.20;99.90
21744;DHT22;11034;48.556;9.342;2022-08-30T10:09:51;25.20;99.90
21744;DHT22;11034;48.556;9.342;2022-08-30T10:12:28;25.40;99.90
21744;DHT22;11034;48.556;9.342;2022-08-30T10:15:02;25.60;99.90
21744;DHT22;11034;48.556;9.342;2022-08-30T10:17:43;25.70;99.90
21744;DHT22;11034;48.556;9.342;2022-08-30T10:20:18;25.80;99.90
21744;DHT22;11034;48.556;9.342;2022-08-30T10:22:51;25.70;99.90
21744;DHT22;11034;48.556;9.342;2022-08-30T10:25:29;25.80;99.90
21744;DHT22;11034;48.556;9.342;2022-08-30T10:28:06;26.00;99.90
21744;DHT22;11034;48.556;9.342;2022-08-30T10:30:38;25.90;99.90
21744;DHT22;11034;48.556;9.342;2022-08-30T10:33:13;25.90;99.90
21744;DHT22;11034;48.556;9.342;2022-08-30T10:35:46;26.00;99.90
21744;DHT22;11034;48.556;9.342;2022-08-30T10:38:19;26.20;99.90
21744;DHT22;11034;48.556;9.342;2022-08-30T10:40:51;26.20;99.90
21744;DHT22;11034;48.556;9.342;2022-08-30T10:43:44;26.40;99.90
21744;DHT22;11034;48.556;9.342;2022-08-30T10:46:23;26.40;99.90
21744;DHT22;11034;48.556;9.342;2022-08-30T10:48:55;26.50;99.90
21744;DHT22;11034;48.556;9.342;2022-08-30T10:51:30;26.40;99.90
21744;DHT22;11034;48.556;9.342;2022-08-30T10:54:07;26.40;99.90
21744;DHT22;11034;48.556;9.342;2022-08-30T10:56:39;26.50;99.90
21744;DHT22;11034;48.556;9.342;2022-08-30T10:59:09;26.60;99.90
21744;DHT22;11034;48.556;9.342;2022-08-30T11:02:10;26.60;99.90
21744;DHT22;11034;48.556;9.342;2022-08-30T11:07:51;26.60;99.90
21744;DHT22;11034;48.556;9.342;2022-08-30T11:10:42;26.60;99.90
21744;DHT22;11034;48.556;9.342;2022-08-30T11:13:17;26.70;99.90
21744;DHT22;11034;48.556;9.342;2022-08-30T11:15:54;26.70;99.90
21744;DHT22;11034;48.556;9.342;2022-08-30T11:18:24;26.90;99.90
21744;DHT22;11034;48.556;9.342;2022-08-30T11:21:23;27.00;99.90
21744;DHT22;11034;48.556;9.342;2022-08-30T11:23:58;27.10;99.90
21744;DHT22;11034;48.556;9.342;2022-08-30T11:29:39;27.20;99.90
21744;DHT22;11034;48.556;9.342;2022-08-30T11:35:42;27.20;99.90
21744;DHT22;11034;48.556;9.342;2022-08-30T11:41:33;27.20;99.90
21744;DHT22;11034;48.556;9.342;2022-08-30T11:44:30;27.30;99.90
21744;DHT22;11034;48.556;9.342;2022-08-30T11:47:00;27.40;99.90
21744;DHT22;11034;48.556;9.342;2022-08-30T11:49:51;27.10;99.90
21744;DHT22;11034;48.556;9.342;2022-08-30T11:55:44;26.80;99.90
21744;DHT22;11034;48.556;9.342;2022-08-30T11:58:24;26.80;99.90
21744;DHT22;11034;48.556;9.342;2022-08-30T12:01:15;26.90;99.90
21744;DHT22;11034;48.556;9.342;2022-08-30T12:04:08;27.10;99.90
21744;DHT22;11034;48.556;9.342;2022-08-30T12:06:50;27.30;99.90
21744;DHT22;11034;48.556;9.342;2022-08-30T12:12:53;27.80;99.90
21744;DHT22;11034;48.556;9.342;2022-08-30T12:18:12;27.70;99.90
21744;DHT22;11034;48.556;9.342;2022-08-30T12:21:25;27.80;99.90
21744;DHT22;11034;48.556;9.342;2022-08-30T12:24:00;27.90;99.90
21744;DHT22;11034;48.556;9.342;2022-08-30T12:26:33;27.90;99.90
21744;DHT22;11034;48.556;9.342;2022-08-30T12:29:10;28.10;99.90
21744;DHT22;11034;48.556;9.342;2022-08-30T12:31:41;28.10;99.90
21744;DHT22;11034;48.556;9.342;2022-08-30T12:34:22;28.20;99.90
21744;DHT22;11034;48.556;9.342;2022-08-30T12:36:55;28.10;99.90
21744;DHT22;11034;48.556;9.342;2022-08-30T12:39:27;28.20;99.90
21744;DHT22;11034;48.556;9.342;2022-08-30T12:42:05;28.10;99.90
21744;DHT22;11034;48.556;9.342;2022-08-30T12:44:45;28.10;99.90
21744;DHT22;11034;48.556;9.342;2022-08-30T12:47:18;28.40;99.90
21744;DHT22;11034;48.556;9.342;2022-08-30T12:49:48;28.70;99.90
21744;DHT22;11034;48.556;9.342;2022-08-30T12:52:20;28.90;99.90
21744;DHT22;11034;48.556;9.342;2022-08-30T12:54:50;29.20;99.90
21744;DHT22;11034;48.556;9.342;2022-08-30T12:57:37;29.30;99.90
21744;DHT22;11034;48.556;9.342;2022-08-30T13:00:09;29.00;99.90
21744;DHT22;11034;48.556;9.342;2022-08-30T13:02:45;28.90;99.90
21744;DHT22;11034;48.556;9.342;2022-08-30T13:05:39;29.00;99.90
21744;DHT22;11034;48.556;9.342;2022-08-30T13:08:17;29.00;99.90
21744;DHT22;11034;48.556;9.342;2022-08-30T13:10:56;29.00;99.90
21744;DHT22;11034;48.556;9.342;2022-08-30T13:13:28;28.80;99.90
21744;DHT22;11034;48.556;9.342;2022-08-30T13:16:08;28.60;99.90
21744;DHT22;11034;48.556;9.342;2022-08-30T13:18:37;28.30;99.90
21744;DHT22;11034;48.556;9.342;2022-08-30T13:21:23;28.10;99.90
21744;DHT22;11034;48.556;9.342;2022-08-30T13:23:56;27.70;99.90
21744;DHT22;11034;48.556;9.342;2022-08-30T13:26:26;27.70;99.90
21744;DHT22;11034;48.556;9.342;2022-08-30T13:28:59;27.70;99.90
21744;DHT22;11034;48.556;9.342;2022-08-30T13:31:29;27.70;99.90
21744;DHT22;11034;48.556;9.342;2022-08-30T13:33:58;27.70;99.90
21744;DHT22;11034;48.556;9.342;2022-08-30T13:36:30;27.80;99.90
21744;DHT22;11034;48.556;9.342;2022-08-30T13:38:59;27.70;99.90
21744;DHT22;11034;48.556;9.342;2022-08-30T13:41:28;27.90;99.90
21744;DHT22;11034;48.556;9.342;2022-08-30T13:44:00;27.70;99.90
21744;DHT22;11034;48.556;9.342;2022-08-30T13:46:43;27.70;99.90
21744;DHT22;11034;48.556;9.342;2022-08-30T13:49:22;27.70;99.90
21744;DHT22;11034;48.556;9.342;2022-08-30T13:52:12;27.70;99.90
21744;DHT22;11034;48.556;9.342;2022-08-30T13:54:47;27.70;99.90
21744;DHT22;11034;48.556;9.342;2022-08-30T13:57:17;27.70;99.90
21744;DHT22;11034;48.556;9.342;2022-08-30T14:00:10;27.80;99.90
21744;DHT22;11034;48.556;9.342;2022-08-30T14:02:46;27.80;99.90
21744;DHT22;11034;48.556;9.342;2022-08-30T14:05:21;27.90;99.90
21744;DHT22;11034;48.556;9.342;2022-08-30T14:08:14;28.00;99.90
21744;DHT22;11034;48.556;9.342;2022-08-30T14:11:03;27.80;99.90
21744;DHT22;11034;48.556;9.342;2022-08-30T14:13:32;27.80;99.90
21744;DHT22;11034;48.556;9.342;2022-08-30T14:16:04;27.80;99.90
21744;DHT22;11034;48.556;9.342;2022-08-30T14:18:54;27.90;99.90
21744;DHT22;11034;48.556;9.342;2022-08-30T14:21:23;27.80;99.90
21744;DHT22;11034;48.556;9.342;2022-08-30T14:24:05;27.70;99.90
21744;DHT22;11034;48.556;9.342;2022-08-30T14:26:38;27.70;99.90
21744;DHT22;11034;48.556;9.342;2022-08-30T14:29:13;27.60;99.90
21744;DHT22;11034;48.556;9.342;2022-08-30T14:31:42;27.50;99.90
21744;DHT22;11034;48.556;9.342;2022-08-30T14:34:16;27.40;99.90
21744;DHT22;11034;48.556;9.342;2022-08-30T14:36:47;27.20;99.90
21744;DHT22;11034;48.556;9.342;2022-08-30T14:39:19;27.20;99.90
21744;DHT22;11034;48.556;9.342;2022-08-30T14:41:50;27.10;99.90
21744;DHT22;11034;48.556;9.342;2022-08-30T14:44:19;27.10;99.90
21744;DHT22;11034;48.556;9.342;2022-08-30T14:46:48;27.10;99.90
21744;DHT22;11034;48.556;9.342;2022-08-30T14:49:20;27.20;99.90
21744;DHT22;11034;48.556;9.342;2022-08-30T14:51:59;27.50;99.90
21744;DHT22;11034;48.556;9.342;2022-08-30T14:54:34;27.50;99.90
21744;DHT22;11034;48.556;9.342;2022-08-30T14:57:02;27.60;99.90
21744;DHT22;11034;48.556;9.342;2022-08-30T14:59:31;27.50;99.90
21744;DHT22;11034;48.556;9.342;2022-08-30T15:02:00;27.50;99.90
21744;DHT22;11034;48.556;9.342;2022-08-30T15:04:30;27.40;99.90
21744;DHT22;11034;48.556;9.342;2022-08-30T15:06:58;27.60;99.90
21744;DHT22;11034;48.556;9.342;2022-08-30T15:09:26;27.70;99.90
21744;DHT22;11034;48.556;9.342;2022-08-30T15:11:56;27.50;99.90
21744;DHT22;11034;48.556;9.342;2022-08-30T15:14:25;27.40;99.90
21744;DHT22;11034;48.556;9.342;2022-08-30T15:16:54;27.50;99.90
21744;DHT22;11034;48.556;9.342;2022-08-30T15:19:25;27.60;99.90
21744;DHT22;11034;48.556;9.342;2022-08-30T15:21:58;27.60;99.90
21744;DHT22;11034;48.556;9.342;2022-08-30T15:24:27;27.40;99.90
21744;DHT22;11034;48.556;9.342;2022-08-30T15:26:56;27.40;99.90
21744;DHT22;11034;48.556;9.342;2022-08-30T15:29:28;27.30;99.90
21744;DHT22;11034;48.556;9.342;2022-08-30T15:32:00;27.00;99.90
21744;DHT22;11034;48.556;9.342;2022-08-30T15:34:31;26.80;99.90
21744;DHT22;11034;48.556;9.342;2022-08-30T15:37:01;26.90;99.90
21744;DHT22;11034;48.556;9.342;2022-08-30T15:39:31;26.80;99.90
21744;DHT22;11034;48.556;9.342;2022-08-30T15:42:00;26.70;99.90
21744;DHT22;11034;48.556;9.342;2022-08-30T15:44:29;26.70;99.90
21744;DHT22;11034;48.556;9.342;2022-08-30T15:46:57;26.60;99.90
21744;DHT22;11034;48.556;9.342;2022-08-30T15:49:25;26.60;99.90
21744;DHT22;11034;48.556;9.342;2022-08-30T15:51:53;26.60;99.90
21744;DHT22;11034;48.556;9.342;2022-08-30T15:54:28;26.60;99.90
21744;DHT22;11034;48.556;9.342;2022-08-30T15:56:56;26.70;99.90
21744;DHT22;11034;48.556;9.342;2022-08-30T15:59:29;26.70;99.90
21744;DHT22;11034;48.556;9.342;2022-08-30T16:01:58;26.80;99.90
21744;DHT22;11034;48.556;9.342;2022-08-30T16:04:27;26.80;99.90
21744;DHT22;11034;48.556;9.342;2022-08-30T16:06:56;26.70;99.90
21744;DHT22;11034;48.556;9.342;2022-08-30T16:09:24;26.60;99.90
21744;DHT22;11034;48.556;9.342;2022-08-30T16:11:59;26.50;99.90
21744;DHT22;11034;48.556;9.342;2022-08-30T16:14:27;26.40;99.90
21744;DHT22;11034;48.556;9.342;2022-08-30T16:16:56;26.30;99.90
21744;DHT22;11034;48.556;9.342;2022-08-30T16:19:24;26.10;99.90
21744;DHT22;11034;48.556;9.342;2022-08-30T16:21:54;25.90;99.90
21744;DHT22;11034;48.556;9.342;2022-08-30T16:24:22;25.70;99.90
21744;DHT22;11034;48.556;9.342;2022-08-30T16:26:52;25.50;99.90
21744;DHT22;11034;48.556;9.342;2022-08-30T16:29:21;25.40;99.90
21744;DHT22;11034;48.556;9.342;2022-08-30T16:31:49;25.20;99.90
21744;DHT22;11034;48.556;9.342;2022-08-30T16:34:19;25.10;99.90
21744;DHT22;11034;48.556;9.342;2022-08-30T16:36:48;25.10;99.90
21744;DHT22;11034;48.556;9.342;2022-08-30T16:43:05;24.80;99.90
21744;DHT22;11034;48.556;9.342;2022-08-30T16:45:37;24.70;99.90
21744;DHT22;11034;48.556;9.342;2022-08-30T18:23:45;20.90;99.90
21744;DHT22;11034;48.556;9.342;2022-08-30T18:26:27;20.90;99.90
21744;DHT22;11034;48.556;9.342;2022-08-30T18:29:11;20.90;99.90
21744;DHT22;11034;48.556;9.342;2022-08-30T18:32:04;21.00;99.90
21744;DHT22;11034;48.556;9.342;2022-08-30T18:35:07;21.00;99.90
21744;DHT22;11034;48.556;9.342;2022-08-30T18:37:41;20.90;99.90
21744;DHT22;11034;48.556;9.342;2022-08-30T18:40:12;20.90;99.90
21744;DHT22;11034;48.556;9.342;2022-08-30T18:42:44;20.80;99.90
21744;DHT22;11034;48.556;9.342;2022-08-30T18:45:13;20.70;99.90
21744;DHT22;11034;48.556;9.342;2022-08-30T18:47:41;20.60;99.90
21744;DHT22;11034;48.556;9.342;2022-08-30T18:50:10;20.40;99.90
21744;DHT22;11034;48.556;9.342;2022-08-30T18:52:38;20.30;99.90
21744;DHT22;11034;48.556;9.342;2022-08-30T18:55:12;20.20;99.90
21744;DHT22;11034;48.556;9.342;2022-08-30T18:57:40;20.10;99.90
21744;DHT22;11034;48.556;9.342;2022-08-30T19:03:58;19.90;99.90
21744;DHT22;11034;48.556;9.342;2022-08-30T19:06:26;19.90;99.90
21744;DHT22;11034;48.556;9.342;2022-08-30T19:08:54;19.90;99.90
21744;DHT22;11034;48.556;9.342;2022-08-30T19:11:25;20.00;99.90
21744;DHT22;11034;48.556;9.342;2022-08-30T19:13:54;20.00;99.90
21744;DHT22;11034;48.556;9.342;2022-08-30T19:16:22;20.10;99.90
21744;DHT22;11034;48.556;9.342;2022-08-30T19:18:51;20.10;99.90
21744;DHT22;11034;48.556;9.342;2022-08-30T19:24:42;19.90;99.90
21744;DHT22;11034;48.556;9.342;2022-08-30T19:27:12;19.90;99.90
21744;DHT22;11034;48.556;9.342;2022-08-30T19:29:41;19.80;99.90
21744;DHT22;11034;48.556;9.342;2022-08-30T19:32:10;19.80;99.90
21744;DHT22;11034;48.556;9.342;2022-08-30T19:34:39;19.80;99.90
21744;DHT22;11034;48.556;9.342;2022-08-30T19:37:07;19.80;99.90
21744;DHT22;11034;48.556;9.342;2022-08-30T19:39:40;19.80;99.90
21744;DHT22;11034;48.556;9.342;2022-08-30T19:42:13;19.80;99.90
21744;DHT22;11034;48.556;9.342;2022-08-30T19:44:42;19.80;99.90
21744;DHT22;11034;48.556;9.342;2022-08-30T19:47:10;19.70;99.90